UBT70A EGKK-KJFK

Flight info

Callsign UBT70A
Flight time 7h 4m
Altitude 38000
Route NOVMA L620 SAM N19 ADKIK DCT PEWBI DCT MOPAT DCT RESNO/M085F380 NATE NEEKO/N0487F400 DCT DANOL DCT ENE PARCH4
Aircraft B789/H-SDE1E2E3FGHIJ2J3J4J5M1RWXY/LB1D1

Departure

Time 2026-04-10 11:16
Airport London Gatwick Airport (EGKK)

Arrival

Time 2026-04-10 18:21
Airport John F. Kennedy International Airport (KJFK)
Time Latitude Longitude Altitude Speed Heading
2026-04-10 10:47 51.15602 -0.16781 212 ft 0 kts 167°
2026-04-10 11:05 51.15605 -0.16782 224 ft 3 kts 167°
2026-04-10 11:05 51.15631 -0.16792 221 ft 4 kts 172°
2026-04-10 11:05 51.15650 -0.16789 222 ft 3 kts 206°
2026-04-10 11:06 51.15671 -0.16768 226 ft 4 kts 228°
2026-04-10 11:06 51.15684 -0.16734 226 ft 4 kts 253°
2026-04-10 11:06 51.15690 -0.16693 224 ft 4 kts 260°
2026-04-10 11:06 51.15692 -0.16677 224 ft 0 kts 257°
2026-04-10 11:10 51.15690 -0.16691 223 ft 3 kts 257°
2026-04-10 11:11 51.15684 -0.16734 216 ft 5 kts 257°
2026-04-10 11:11 51.15672 -0.16825 221 ft 12 kts 258°
2026-04-10 11:11 51.15652 -0.16974 220 ft 14 kts 258°
2026-04-10 11:11 51.15632 -0.17122 221 ft 14 kts 257°
2026-04-10 11:12 51.15610 -0.17268 219 ft 13 kts 254°
2026-04-10 11:12 51.15579 -0.17402 222 ft 12 kts 230°
2026-04-10 11:12 51.15502 -0.17425 219 ft 13 kts 167°
2026-04-10 11:12 51.15409 -0.17389 217 ft 14 kts 166°
2026-04-10 11:13 51.15318 -0.17358 222 ft 13 kts 169°
2026-04-10 11:13 51.15239 -0.17312 224 ft 11 kts 145°
2026-04-10 11:13 51.15187 -0.17229 222 ft 10 kts 111°
2026-04-10 11:13 51.15190 -0.17126 222 ft 10 kts 78°
2026-04-10 11:14 51.15203 -0.17019 217 ft 10 kts 79°
2026-04-10 11:14 51.15216 -0.16914 225 ft 9 kts 79°
2026-04-10 11:14 51.15210 -0.16827 222 ft 6 kts 133°
2026-04-10 11:14 51.15178 -0.16801 215 ft 7 kts 158°
2026-04-10 11:15 51.15134 -0.16805 224 ft 7 kts 220°
2026-04-10 11:15 51.15107 -0.16899 220 ft 12 kts 259°
2026-04-10 11:15 51.15073 -0.17145 223 ft 43 kts 257°
2026-04-10 11:15 51.14962 -0.17962 217 ft 108 kts 257°
2026-04-10 11:16 51.14753 -0.19455 226 ft 166 kts 257°
2026-04-10 11:16 51.14526 -0.21275 821 ft 162 kts 260°
2026-04-10 11:16 51.14280 -0.23154 1355 ft 182 kts 254°
2026-04-10 11:16 51.13971 -0.25139 2115 ft 194 kts 257°
2026-04-10 11:17 51.13668 -0.27373 2554 ft 224 kts 257°
2026-04-10 11:17 51.13312 -0.29966 3065 ft 244 kts 257°
2026-04-10 11:17 51.12945 -0.32617 3849 ft 252 kts 257°
2026-04-10 11:17 51.12565 -0.35332 4153 ft 252 kts 257°
2026-04-10 11:18 51.12187 -0.38023 4584 ft 248 kts 256°
2026-04-10 11:18 51.11808 -0.40721 4843 ft 250 kts 257°
2026-04-10 11:18 51.11370 -0.43395 5136 ft 250 kts 245°
2026-04-10 11:18 51.10534 -0.45821 5356 ft 253 kts 243°
2026-04-10 11:19 51.09782 -0.48381 5974 ft 254 kts 245°
2026-04-10 11:19 51.09025 -0.50919 6698 ft 255 kts 244°
2026-04-10 11:19 51.08229 -0.53449 7361 ft 255 kts 243°
2026-04-10 11:19 51.07433 -0.55973 8045 ft 255 kts 244°
2026-04-10 11:20 51.06641 -0.58508 8768 ft 257 kts 244°
2026-04-10 11:20 51.05851 -0.61040 9829 ft 255 kts 244°
2026-04-10 11:20 51.05209 -0.63723 10386 ft 271 kts 259°
2026-04-10 11:20 51.04880 -0.66730 11086 ft 277 kts 257°
2026-04-10 11:21 51.04428 -0.69790 11553 ft 296 kts 256°
2026-04-10 11:21 51.03955 -0.73121 11841 ft 318 kts 257°
2026-04-10 11:21 51.03503 -0.76557 12754 ft 319 kts 258°
2026-04-10 11:21 51.03039 -0.80044 13426 ft 329 kts 257°
2026-04-10 11:22 51.02540 -0.83686 13970 ft 340 kts 257°
2026-04-10 11:22 51.02035 -0.87364 14724 ft 343 kts 257°
2026-04-10 11:22 51.01526 -0.91089 15445 ft 347 kts 257°
2026-04-10 11:22 51.01014 -0.94853 16171 ft 350 kts 257°
2026-04-10 11:23 51.00500 -0.98654 16867 ft 354 kts 257°
2026-04-10 11:23 50.99977 -1.02491 17562 ft 357 kts 257°
2026-04-10 11:23 50.99440 -1.06370 18226 ft 361 kts 257°
2026-04-10 11:23 50.98899 -1.10279 18856 ft 365 kts 257°
2026-04-10 11:24 50.98353 -1.14231 19452 ft 367 kts 257°
2026-04-10 11:24 50.97803 -1.18205 20032 ft 370 kts 257°
2026-04-10 11:24 50.97244 -1.22218 20602 ft 374 kts 257°
2026-04-10 11:24 50.96679 -1.26261 21191 ft 376 kts 257°
2026-04-10 11:25 50.96110 -1.30332 21733 ft 379 kts 257°
2026-04-10 11:25 50.95536 -1.34432 22266 ft 382 kts 257°
2026-04-10 11:25 50.95027 -1.38587 22751 ft 386 kts 258°
2026-04-10 11:25 50.94485 -1.42773 23290 ft 388 kts 258°
2026-04-10 11:26 50.93937 -1.46983 23781 ft 391 kts 258°
2026-04-10 11:26 50.93399 -1.51221 24199 ft 393 kts 258°
2026-04-10 11:26 50.92867 -1.55430 24605 ft 395 kts 258°
2026-04-10 11:26 50.92317 -1.59718 25035 ft 397 kts 258°
2026-04-10 11:27 50.91761 -1.64013 25427 ft 399 kts 258°
2026-04-10 11:27 50.91202 -1.68336 25813 ft 401 kts 258°
2026-04-10 11:27 50.90641 -1.72679 26199 ft 403 kts 258°
2026-04-10 11:27 50.90075 -1.77040 26611 ft 405 kts 258°
2026-04-10 11:28 50.89503 -1.81424 26990 ft 407 kts 258°
2026-04-10 11:28 50.88927 -1.85822 27362 ft 409 kts 258°
2026-04-10 11:28 50.88348 -1.90244 27738 ft 411 kts 258°
2026-04-10 11:28 50.87764 -1.94686 28131 ft 413 kts 258°
2026-04-10 11:29 50.87175 -1.99143 28494 ft 415 kts 258°
2026-04-10 11:29 50.86583 -2.03618 28864 ft 416 kts 258°
2026-04-10 11:29 50.85985 -2.08111 29222 ft 418 kts 258°
2026-04-10 11:29 50.85383 -2.12620 29600 ft 420 kts 258°
2026-04-10 11:30 50.84777 -2.17148 29944 ft 422 kts 258°
2026-04-10 11:30 50.84167 -2.21697 30285 ft 423 kts 258°
2026-04-10 11:30 50.83552 -2.26260 30561 ft 425 kts 258°
2026-04-10 11:30 50.82934 -2.30836 30865 ft 426 kts 258°
2026-04-10 11:31 50.82312 -2.35429 31146 ft 428 kts 258°
2026-04-10 11:31 50.81685 -2.40038 31410 ft 430 kts 258°
2026-04-10 11:31 50.81062 -2.44607 31679 ft 431 kts 258°
2026-04-10 11:31 50.80574 -2.49288 31948 ft 432 kts 264°
2026-04-10 11:32 50.80508 -2.54112 32209 ft 435 kts 272°
2026-04-10 11:32 50.80871 -2.58807 32528 ft 437 kts 279°
2026-04-10 11:32 50.81662 -2.63450 32926 ft 438 kts 286°
2026-04-10 11:32 50.82658 -2.67997 33282 ft 437 kts 285°
2026-04-10 11:33 50.83647 -2.72538 33703 ft 435 kts 285°
2026-04-10 11:33 50.84639 -2.77053 34104 ft 434 kts 285°
2026-04-10 11:33 50.85628 -2.81556 34441 ft 433 kts 285°
2026-04-10 11:33 50.86608 -2.86049 34788 ft 431 kts 285°
2026-04-10 11:34 50.87581 -2.90529 35109 ft 430 kts 285°
2026-04-10 11:34 50.88552 -2.95002 35404 ft 429 kts 285°
2026-04-10 11:34 50.89521 -2.99465 35692 ft 428 kts 285°
2026-04-10 11:34 50.90486 -3.03927 36025 ft 427 kts 285°
2026-04-10 11:35 50.91445 -3.08373 36319 ft 426 kts 285°
2026-04-10 11:35 50.92401 -3.12813 36599 ft 425 kts 285°
2026-04-10 11:35 50.93353 -3.17243 36879 ft 424 kts 285°
2026-04-10 11:35 50.94301 -3.21663 37194 ft 423 kts 285°
2026-04-10 11:36 50.95246 -3.26080 37479 ft 422 kts 285°
2026-04-10 11:36 50.96185 -3.30482 37729 ft 422 kts 285°
2026-04-10 11:36 50.97122 -3.34885 37902 ft 423 kts 285°
2026-04-10 11:36 50.98064 -3.39315 38115 ft 423 kts 285°
2026-04-10 11:37 50.99928 -3.48106 38150 ft 417 kts 285°
2026-04-10 11:37 51.01757 -3.56786 38149 ft 419 kts 285°
2026-04-10 11:38 51.03604 -3.65573 38147 ft 419 kts 285°
2026-04-10 11:38 51.05443 -3.74372 38153 ft 419 kts 285°
2026-04-10 11:39 51.07278 -3.83180 38137 ft 421 kts 285°
2026-04-10 11:39 51.09127 -3.92110 38128 ft 428 kts 285°
2026-04-10 11:40 51.10986 -4.01108 38132 ft 428 kts 285°
2026-04-10 11:40 51.12830 -4.10090 38135 ft 426 kts 285°
2026-04-10 11:41 51.14664 -4.19059 38127 ft 425 kts 285°
2026-04-10 11:41 51.16488 -4.28019 38130 ft 425 kts 285°
2026-04-10 11:42 51.18301 -4.36963 38120 ft 423 kts 284°
2026-04-10 11:42 51.20101 -4.45887 38117 ft 422 kts 284°
2026-04-10 11:43 51.21919 -4.54811 38131 ft 426 kts 288°
2026-04-10 11:43 51.24767 -4.63236 38123 ft 438 kts 300°
2026-04-10 11:44 51.28244 -4.71190 38115 ft 436 kts 299°
2026-04-10 11:44 51.31738 -4.79114 38140 ft 435 kts 298°
2026-04-10 11:45 51.33451 -4.83016 38101 ft 422 kts 298°
2026-04-10 11:45 51.35115 -4.86827 38098 ft 415 kts 298°
2026-04-10 11:45 51.38414 -4.94404 38095 ft 417 kts 298°
2026-04-10 11:46 51.41749 -5.02055 38102 ft 420 kts 298°
2026-04-10 11:46 51.45063 -5.09696 38085 ft 421 kts 298°
2026-04-10 11:47 51.48398 -5.17400 38087 ft 420 kts 297°
2026-04-10 11:47 51.51724 -5.25112 38088 ft 420 kts 297°
2026-04-10 11:48 51.55048 -5.32840 38102 ft 420 kts 297°
2026-04-10 11:48 51.58373 -5.40594 38085 ft 421 kts 297°
2026-04-10 11:49 51.61696 -5.48366 38085 ft 421 kts 297°
2026-04-10 11:49 51.65012 -5.56145 38075 ft 421 kts 297°
2026-04-10 11:50 51.67763 -5.62617 38075 ft 422 kts 297°
2026-04-10 11:50 51.71081 -5.70443 38063 ft 423 kts 297°
2026-04-10 11:51 51.74395 -5.78285 38067 ft 423 kts 297°
2026-04-10 11:51 51.77705 -5.86140 38062 ft 423 kts 296°
2026-04-10 11:52 51.81016 -5.94024 38059 ft 424 kts 296°
2026-04-10 11:52 51.84326 -6.01925 38056 ft 425 kts 296°
2026-04-10 11:53 51.87615 -6.09805 38038 ft 425 kts 296°
2026-04-10 11:53 51.90921 -6.17749 38037 ft 425 kts 296°
2026-04-10 11:54 51.94224 -6.25710 38039 ft 426 kts 296°
2026-04-10 11:54 51.97529 -6.33699 38036 ft 426 kts 296°
2026-04-10 11:55 52.00826 -6.41693 38033 ft 427 kts 296°
2026-04-10 11:55 52.04124 -6.49716 38030 ft 427 kts 296°
2026-04-10 11:56 52.07417 -6.57754 38028 ft 427 kts 296°
2026-04-10 11:56 52.10707 -6.65807 38014 ft 427 kts 296°
2026-04-10 11:57 52.13987 -6.73864 38024 ft 427 kts 296°
2026-04-10 11:57 52.17268 -6.81946 38024 ft 428 kts 295°
2026-04-10 11:58 52.20528 -6.90003 38027 ft 430 kts 295°
2026-04-10 11:58 52.23838 -6.98210 38033 ft 434 kts 295°
2026-04-10 11:59 52.27157 -7.06461 38033 ft 435 kts 295°
2026-04-10 11:59 52.30470 -7.14729 38024 ft 435 kts 295°
2026-04-10 12:00 52.33779 -7.23009 38006 ft 434 kts 295°
2026-04-10 12:00 52.37076 -7.31293 37992 ft 435 kts 295°
2026-04-10 12:01 52.40374 -7.39602 37972 ft 435 kts 295°
2026-04-10 12:01 52.43666 -7.47922 37953 ft 435 kts 295°
2026-04-10 12:02 52.46953 -7.56260 37942 ft 436 kts 295°
2026-04-10 12:02 52.50224 -7.64582 37940 ft 437 kts 295°
2026-04-10 12:03 52.53519 -7.72994 37917 ft 438 kts 295°
2026-04-10 12:03 52.56807 -7.81415 37930 ft 438 kts 295°
2026-04-10 12:04 52.60095 -7.89865 37912 ft 439 kts 295°
2026-04-10 12:04 52.63381 -7.98336 37907 ft 439 kts 295°
2026-04-10 12:05 52.66664 -8.06831 37903 ft 439 kts 295°
2026-04-10 12:05 52.69947 -8.15353 37893 ft 441 kts 295°
2026-04-10 12:06 52.73230 -8.23902 37890 ft 441 kts 295°
2026-04-10 12:06 52.76513 -8.32481 37885 ft 442 kts 295°
2026-04-10 12:07 52.81406 -8.45323 37855 ft 442 kts 294°
2026-04-10 12:08 52.84677 -8.53943 37859 ft 442 kts 294°
2026-04-10 12:08 52.87945 -8.62588 37852 ft 443 kts 294°
2026-04-10 12:09 52.91213 -8.71258 37840 ft 443 kts 294°
2026-04-10 12:09 52.94474 -8.79943 37828 ft 444 kts 294°
2026-04-10 12:10 52.97730 -8.88643 37829 ft 444 kts 294°
2026-04-10 12:10 53.00976 -8.97347 37825 ft 443 kts 294°
2026-04-10 12:11 53.04211 -9.06051 37807 ft 443 kts 294°
2026-04-10 12:11 53.07441 -9.14774 37794 ft 443 kts 294°
2026-04-10 12:12 53.10665 -9.23507 37795 ft 443 kts 293°
2026-04-10 12:12 53.13883 -9.32259 37785 ft 443 kts 293°
2026-04-10 12:13 53.17101 -9.41037 37762 ft 444 kts 293°
2026-04-10 12:13 53.20317 -9.49841 37760 ft 444 kts 293°
2026-04-10 12:14 53.23506 -9.58604 37752 ft 445 kts 293°
2026-04-10 12:14 53.26710 -9.67438 37742 ft 445 kts 292°
2026-04-10 12:15 53.29917 -9.76313 37709 ft 446 kts 292°
2026-04-10 12:15 53.33116 -9.85195 37716 ft 446 kts 292°
2026-04-10 12:16 53.36318 -9.94124 37713 ft 448 kts 292°
2026-04-10 12:16 53.39527 -10.03095 37700 ft 449 kts 292°
2026-04-10 12:17 53.42733 -10.12097 37690 ft 450 kts 292°
2026-04-10 12:17 53.45939 -10.21127 37675 ft 451 kts 292°
2026-04-10 12:18 53.49127 -10.30144 37667 ft 452 kts 292°
2026-04-10 12:18 53.52337 -10.39251 37650 ft 454 kts 292°
2026-04-10 12:19 53.55552 -10.48410 37639 ft 455 kts 291°
2026-04-10 12:19 53.58763 -10.57591 37633 ft 455 kts 291°
2026-04-10 12:20 53.61977 -10.66813 37615 ft 458 kts 291°
2026-04-10 12:20 53.65195 -10.76081 37605 ft 459 kts 291°
2026-04-10 12:21 53.68421 -10.85408 37570 ft 461 kts 291°
2026-04-10 12:21 53.71652 -10.94784 37572 ft 463 kts 291°
2026-04-10 12:22 53.74861 -11.04132 37568 ft 463 kts 291°
2026-04-10 12:22 53.78083 -11.13555 37548 ft 463 kts 291°
2026-04-10 12:23 53.81307 -11.23020 37537 ft 465 kts 291°
2026-04-10 12:23 53.84535 -11.32532 37525 ft 466 kts 291°
2026-04-10 12:24 53.87763 -11.42080 37509 ft 468 kts 291°
2026-04-10 12:24 53.90991 -11.51668 37496 ft 469 kts 291°
2026-04-10 12:25 53.94220 -11.61296 37483 ft 470 kts 291°
2026-04-10 12:25 53.97448 -11.70959 37476 ft 471 kts 291°
2026-04-10 12:26 54.00679 -11.80669 37463 ft 473 kts 291°
2026-04-10 12:26 54.03910 -11.90418 37457 ft 474 kts 291°
2026-04-10 12:27 54.07141 -12.00205 37438 ft 475 kts 291°
2026-04-10 12:27 54.10372 -12.10031 37419 ft 475 kts 291°
2026-04-10 12:28 54.13599 -12.19889 37416 ft 477 kts 290°
2026-04-10 12:28 54.16833 -12.29804 37413 ft 479 kts 290°
2026-04-10 12:29 54.20069 -12.39764 37405 ft 480 kts 290°
2026-04-10 12:29 54.23279 -12.49689 37388 ft 481 kts 290°
2026-04-10 12:30 54.26510 -12.59722 37378 ft 482 kts 290°
2026-04-10 12:30 54.29742 -12.69795 37379 ft 482 kts 290°
2026-04-10 12:31 54.32969 -12.79899 37371 ft 484 kts 290°
2026-04-10 12:31 54.36197 -12.90042 37350 ft 485 kts 290°
2026-04-10 12:32 54.39421 -13.00222 37348 ft 486 kts 290°
2026-04-10 12:32 54.42649 -13.10456 37342 ft 487 kts 290°
2026-04-10 12:33 54.45870 -13.20708 37337 ft 488 kts 290°
2026-04-10 12:33 54.49087 -13.30995 37329 ft 489 kts 290°
2026-04-10 12:34 54.52306 -13.41331 37317 ft 490 kts 290°
2026-04-10 12:34 54.55520 -13.51698 37314 ft 491 kts 290°
2026-04-10 12:35 54.58735 -13.62110 37302 ft 493 kts 290°
2026-04-10 12:35 54.61950 -13.72568 37293 ft 494 kts 290°
2026-04-10 12:36 54.65158 -13.83050 37284 ft 494 kts 289°
2026-04-10 12:36 54.68339 -13.93492 37279 ft 495 kts 289°
2026-04-10 12:37 54.71540 -14.04043 37252 ft 496 kts 289°
2026-04-10 12:37 54.74737 -14.14631 37263 ft 496 kts 289°
2026-04-10 12:38 54.77931 -14.25254 37256 ft 498 kts 289°
2026-04-10 12:38 54.81122 -14.35914 37248 ft 498 kts 289°
2026-04-10 12:39 54.84296 -14.46561 37242 ft 495 kts 289°
2026-04-10 12:39 54.86915 -14.55397 37235 ft 495 kts 289°
2026-04-10 12:40 54.90068 -14.66063 37232 ft 497 kts 289°
2026-04-10 12:40 54.93214 -14.76757 37223 ft 497 kts 289°
2026-04-10 12:41 54.96351 -14.87470 37199 ft 497 kts 289°
2026-04-10 12:41 54.99483 -14.98215 37207 ft 498 kts 289°
2026-04-10 12:42 55.02081 -15.09270 37199 ft 493 kts 284°
2026-04-10 12:42 55.04595 -15.20405 37189 ft 494 kts 284°
2026-04-10 12:43 55.07064 -15.31511 37186 ft 495 kts 284°
2026-04-10 12:43 55.09553 -15.42702 37168 ft 494 kts 284°
2026-04-10 12:44 55.12024 -15.53909 37168 ft 495 kts 284°
2026-04-10 12:44 55.14490 -15.65131 37162 ft 494 kts 284°
2026-04-10 12:45 55.16945 -15.76380 37149 ft 495 kts 284°
2026-04-10 12:45 55.19387 -15.87622 37142 ft 494 kts 284°
2026-04-10 12:46 55.21817 -15.98875 37136 ft 494 kts 284°
2026-04-10 12:46 55.24239 -16.10150 37126 ft 494 kts 284°
2026-04-10 12:47 55.26647 -16.21419 37116 ft 493 kts 284°
2026-04-10 12:47 55.29042 -16.32696 37107 ft 493 kts 284°
2026-04-10 12:48 55.31427 -16.43980 37097 ft 493 kts 284°
2026-04-10 12:48 55.33803 -16.55292 37083 ft 494 kts 284°
2026-04-10 12:49 55.36167 -16.66605 37061 ft 493 kts 284°
2026-04-10 12:49 55.38520 -16.77930 37062 ft 493 kts 284°
2026-04-10 12:50 55.40863 -16.89275 37059 ft 494 kts 284°
2026-04-10 12:50 55.43201 -17.00659 37049 ft 494 kts 284°
2026-04-10 12:51 55.45531 -17.12066 37035 ft 495 kts 284°
2026-04-10 12:51 55.47853 -17.23498 37028 ft 496 kts 284°
2026-04-10 12:52 55.50151 -17.34880 37014 ft 496 kts 283°
2026-04-10 12:52 55.52458 -17.46376 36996 ft 497 kts 283°
2026-04-10 12:53 55.54758 -17.57897 36984 ft 498 kts 283°
2026-04-10 12:53 55.57048 -17.69444 36975 ft 498 kts 283°
2026-04-10 12:54 55.59329 -17.81006 36948 ft 498 kts 283°
2026-04-10 12:54 55.61599 -17.92585 36936 ft 499 kts 283°
2026-04-10 12:55 55.63862 -18.04197 36909 ft 499 kts 283°
2026-04-10 12:55 55.66113 -18.15821 36893 ft 499 kts 283°
2026-04-10 12:56 55.68355 -18.27462 36871 ft 499 kts 283°
2026-04-10 12:56 55.70571 -18.39040 36843 ft 499 kts 283°
2026-04-10 12:57 55.72789 -18.50701 36824 ft 499 kts 282°
2026-04-10 12:57 55.74998 -18.62384 36803 ft 499 kts 282°
2026-04-10 12:58 55.77197 -18.74093 36782 ft 500 kts 282°
2026-04-10 12:58 55.79387 -18.85811 36752 ft 500 kts 282°
2026-04-10 12:59 55.81564 -18.97550 36733 ft 500 kts 282°
2026-04-10 12:59 55.83735 -19.09323 36704 ft 501 kts 282°
2026-04-10 13:00 55.85894 -19.21109 36676 ft 501 kts 282°
2026-04-10 13:00 55.88048 -19.32922 36662 ft 502 kts 282°
2026-04-10 13:01 55.90176 -19.44699 36643 ft 503 kts 282°
2026-04-10 13:01 55.92325 -19.56645 36639 ft 503 kts 282°
2026-04-10 13:02 55.94435 -19.68456 36613 ft 503 kts 282°
2026-04-10 13:02 55.96545 -19.80354 36620 ft 503 kts 282°
2026-04-10 13:03 55.98648 -19.92277 36631 ft 503 kts 282°
2026-04-10 13:03 56.00606 -20.04252 36650 ft 500 kts 279°
2026-04-10 13:04 56.02340 -20.16331 36668 ft 501 kts 279°
2026-04-10 13:04 56.04050 -20.28413 36696 ft 501 kts 279°
2026-04-10 13:05 56.05751 -20.40496 36721 ft 500 kts 278°
2026-04-10 13:05 56.07419 -20.52497 36749 ft 500 kts 278°
2026-04-10 13:06 56.09098 -20.64596 36788 ft 501 kts 278°
2026-04-10 13:06 56.10765 -20.76718 36821 ft 501 kts 278°
2026-04-10 13:07 56.12416 -20.88871 36854 ft 502 kts 279°
2026-04-10 13:07 56.14063 -21.01044 36893 ft 503 kts 279°
2026-04-10 13:08 56.15696 -21.13229 36917 ft 503 kts 279°
2026-04-10 13:08 56.17318 -21.25436 36957 ft 503 kts 278°
2026-04-10 13:09 56.19733 -21.43780 36999 ft 503 kts 279°
2026-04-10 13:09 56.21323 -21.56029 37023 ft 504 kts 278°
2026-04-10 13:10 56.22911 -21.68285 37045 ft 504 kts 279°
2026-04-10 13:10 56.24479 -21.80561 37062 ft 504 kts 278°
2026-04-10 13:11 56.26037 -21.92847 37085 ft 504 kts 279°
2026-04-10 13:11 56.27574 -22.05062 37097 ft 504 kts 279°
2026-04-10 13:12 56.29110 -22.17377 37118 ft 504 kts 278°
2026-04-10 13:12 56.30631 -22.29696 37139 ft 504 kts 279°
2026-04-10 13:13 56.32140 -22.42023 37155 ft 504 kts 279°
2026-04-10 13:13 56.33642 -22.54361 37169 ft 504 kts 278°
2026-04-10 13:14 56.35127 -22.66700 37181 ft 503 kts 278°
2026-04-10 13:14 56.36598 -22.79039 37198 ft 503 kts 279°
2026-04-10 13:15 56.38056 -22.91380 37211 ft 503 kts 279°
2026-04-10 13:15 56.39502 -23.03725 37224 ft 503 kts 278°
2026-04-10 13:16 56.40926 -23.15998 37239 ft 503 kts 279°
2026-04-10 13:16 56.42347 -23.28367 37257 ft 503 kts 278°
2026-04-10 13:17 56.43758 -23.40745 37272 ft 502 kts 278°
2026-04-10 13:17 56.45152 -23.53112 37287 ft 503 kts 278°
2026-04-10 13:18 56.46539 -23.65530 37308 ft 502 kts 278°
2026-04-10 13:18 56.47901 -23.77841 37324 ft 502 kts 278°
2026-04-10 13:19 56.49259 -23.90227 37334 ft 502 kts 278°
2026-04-10 13:19 56.50606 -24.02662 37352 ft 503 kts 278°
2026-04-10 13:20 56.51940 -24.15068 37365 ft 502 kts 278°
2026-04-10 13:20 56.53261 -24.27501 37378 ft 502 kts 278°
2026-04-10 13:21 56.54569 -24.39925 37387 ft 502 kts 278°
2026-04-10 13:21 56.55864 -24.52346 37392 ft 502 kts 278°
2026-04-10 13:22 56.57145 -24.64790 37412 ft 502 kts 278°
2026-04-10 13:22 56.58411 -24.77151 37423 ft 501 kts 278°
2026-04-10 13:23 56.59665 -24.89606 37429 ft 502 kts 278°
2026-04-10 13:23 56.60915 -25.02080 37439 ft 502 kts 278°
2026-04-10 13:24 56.62149 -25.14578 37453 ft 501 kts 278°
2026-04-10 13:24 56.63363 -25.26980 37450 ft 501 kts 278°
2026-04-10 13:25 56.64576 -25.39528 37470 ft 501 kts 278°
2026-04-10 13:25 56.65762 -25.51929 37471 ft 501 kts 278°
2026-04-10 13:26 56.66944 -25.64408 37478 ft 501 kts 278°
2026-04-10 13:26 56.68111 -25.76894 37487 ft 500 kts 278°
2026-04-10 13:27 56.69266 -25.89357 37491 ft 500 kts 278°
2026-04-10 13:27 56.70403 -26.01817 37499 ft 499 kts 278°
2026-04-10 13:28 56.71525 -26.14197 37502 ft 498 kts 278°
2026-04-10 13:28 56.72636 -26.26637 37508 ft 498 kts 278°
2026-04-10 13:29 56.73733 -26.39071 37510 ft 497 kts 278°
2026-04-10 13:29 56.74817 -26.51484 37515 ft 495 kts 278°
2026-04-10 13:30 56.75885 -26.63877 37517 ft 494 kts 277°
2026-04-10 13:30 56.76763 -26.74168 37522 ft 494 kts 277°
2026-04-10 13:31 56.77806 -26.86533 37521 ft 493 kts 277°
2026-04-10 13:31 56.78833 -26.98876 37526 ft 492 kts 277°
2026-04-10 13:32 56.79848 -27.11208 37520 ft 491 kts 277°
2026-04-10 13:32 56.80850 -27.23540 37524 ft 492 kts 277°
2026-04-10 13:33 56.81839 -27.35878 37525 ft 492 kts 277°
2026-04-10 13:33 56.82818 -27.48239 37522 ft 492 kts 277°
2026-04-10 13:34 56.83784 -27.60594 37521 ft 492 kts 277°
2026-04-10 13:34 56.84737 -27.72966 37522 ft 491 kts 277°
2026-04-10 13:35 56.85678 -27.85328 37522 ft 491 kts 277°
2026-04-10 13:35 56.86606 -27.97694 37515 ft 491 kts 277°
2026-04-10 13:36 56.87516 -28.09976 37511 ft 491 kts 277°
2026-04-10 13:36 56.88419 -28.22346 37509 ft 490 kts 277°
2026-04-10 13:37 56.89308 -28.34696 37502 ft 489 kts 277°
2026-04-10 13:37 56.90178 -28.46959 37486 ft 484 kts 277°
2026-04-10 13:38 56.91032 -28.59167 37483 ft 483 kts 277°
2026-04-10 13:38 56.91874 -28.71363 37479 ft 483 kts 277°
2026-04-10 13:39 56.92703 -28.83567 37471 ft 482 kts 277°
2026-04-10 13:39 56.93518 -28.95744 37464 ft 481 kts 277°
2026-04-10 13:40 56.94314 -29.07800 37458 ft 479 kts 277°
2026-04-10 13:40 56.95100 -29.19909 37444 ft 478 kts 277°
2026-04-10 13:41 56.95874 -29.32003 37436 ft 478 kts 277°
2026-04-10 13:41 56.96635 -29.44081 37427 ft 476 kts 277°
2026-04-10 13:42 56.97383 -29.56150 37413 ft 476 kts 277°
2026-04-10 13:42 56.98118 -29.68191 37407 ft 475 kts 277°
2026-04-10 13:43 56.98839 -29.80214 37397 ft 474 kts 277°
2026-04-10 13:43 56.99550 -29.92237 37383 ft 474 kts 277°
2026-04-10 13:44 56.99758 -30.04281 37385 ft 474 kts 264°
2026-04-10 13:44 56.99042 -30.16347 37371 ft 476 kts 265°
2026-04-10 13:45 56.98325 -30.28381 37361 ft 475 kts 265°
2026-04-10 13:45 56.97597 -30.40356 37355 ft 475 kts 265°
2026-04-10 13:46 56.96855 -30.52379 37347 ft 474 kts 265°
2026-04-10 13:46 56.96102 -30.64394 37334 ft 474 kts 265°
2026-04-10 13:47 56.95336 -30.76404 37328 ft 474 kts 265°
2026-04-10 13:47 56.94561 -30.88405 37329 ft 475 kts 265°
2026-04-10 13:48 56.93771 -31.00425 37325 ft 475 kts 265°
2026-04-10 13:48 56.92972 -31.12428 37318 ft 475 kts 265°
2026-04-10 13:49 56.92160 -31.24420 37317 ft 474 kts 265°
2026-04-10 13:49 56.91339 -31.36410 37321 ft 475 kts 265°
2026-04-10 13:50 56.90504 -31.48398 37325 ft 474 kts 265°
2026-04-10 13:50 56.89660 -31.60348 37325 ft 474 kts 265°
2026-04-10 13:51 56.88811 -31.72220 37326 ft 473 kts 265°
2026-04-10 13:51 56.87947 -31.84126 37327 ft 472 kts 265°
2026-04-10 13:52 56.87073 -31.96006 37334 ft 470 kts 265°
2026-04-10 13:52 56.86189 -32.07856 37338 ft 470 kts 265°
2026-04-10 13:53 56.85299 -32.19668 37345 ft 469 kts 265°
2026-04-10 13:53 56.84398 -32.31454 37346 ft 468 kts 265°
2026-04-10 13:54 56.83485 -32.43225 37353 ft 469 kts 265°
2026-04-10 13:54 56.82562 -32.54995 37355 ft 467 kts 265°
2026-04-10 13:55 56.81629 -32.66742 37360 ft 466 kts 265°
2026-04-10 13:55 56.80695 -32.78368 37368 ft 466 kts 265°
2026-04-10 13:56 56.79743 -32.90059 37377 ft 465 kts 265°
2026-04-10 13:56 56.78784 -33.01703 37381 ft 464 kts 265°
2026-04-10 13:57 56.77814 -33.13376 37389 ft 466 kts 265°
2026-04-10 13:57 56.76829 -33.25044 37402 ft 465 kts 265°
2026-04-10 13:58 56.75834 -33.36710 37413 ft 465 kts 265°
2026-04-10 13:58 56.74839 -33.48254 37426 ft 464 kts 265°
2026-04-10 13:59 56.73824 -33.59879 37426 ft 465 kts 265°
2026-04-10 13:59 56.72802 -33.71489 37436 ft 464 kts 265°
2026-04-10 14:00 56.71764 -33.83100 37449 ft 465 kts 265°
2026-04-10 14:00 56.70718 -33.94717 37469 ft 464 kts 265°
2026-04-10 14:01 56.69663 -34.06310 37477 ft 465 kts 265°
2026-04-10 14:01 56.68600 -34.17823 37484 ft 463 kts 265°
2026-04-10 14:02 56.67524 -34.29392 37493 ft 463 kts 265°
2026-04-10 14:02 56.66440 -34.40932 37507 ft 463 kts 265°
2026-04-10 14:03 56.65340 -34.52489 37512 ft 463 kts 265°
2026-04-10 14:03 56.64234 -34.64015 37523 ft 463 kts 265°
2026-04-10 14:04 56.63118 -34.75522 37534 ft 462 kts 265°
2026-04-10 14:05 56.61430 -34.92710 37553 ft 463 kts 265°
2026-04-10 14:05 56.60284 -35.04214 37562 ft 463 kts 264°
2026-04-10 14:06 56.59129 -35.15728 37565 ft 463 kts 264°
2026-04-10 14:06 56.57963 -35.27234 37575 ft 464 kts 264°
2026-04-10 14:07 56.56783 -35.38740 37589 ft 464 kts 264°
2026-04-10 14:07 56.55594 -35.50239 37594 ft 464 kts 264°
2026-04-10 14:08 56.54393 -35.61750 37608 ft 465 kts 264°
2026-04-10 14:08 56.53181 -35.73246 37615 ft 464 kts 264°
2026-04-10 14:09 56.51960 -35.84736 37635 ft 464 kts 264°
2026-04-10 14:09 56.50727 -35.96224 37640 ft 465 kts 264°
2026-04-10 14:10 56.49482 -36.07706 37643 ft 465 kts 263°
2026-04-10 14:10 56.48237 -36.19097 37657 ft 465 kts 263°
2026-04-10 14:11 56.46971 -36.30562 37667 ft 464 kts 263°
2026-04-10 14:11 56.45699 -36.42000 37670 ft 464 kts 263°
2026-04-10 14:12 56.44412 -36.53453 37682 ft 464 kts 263°
2026-04-10 14:12 56.43115 -36.64893 37687 ft 465 kts 263°
2026-04-10 14:13 56.41809 -36.76325 37701 ft 465 kts 263°
2026-04-10 14:13 56.40490 -36.87763 37706 ft 465 kts 263°
2026-04-10 14:14 56.39163 -36.99170 37712 ft 464 kts 263°
2026-04-10 14:14 56.37825 -37.10580 37721 ft 464 kts 263°
2026-04-10 14:15 56.36477 -37.21963 37728 ft 464 kts 263°
2026-04-10 14:15 56.35121 -37.33336 37734 ft 464 kts 262°
2026-04-10 14:16 56.33761 -37.44634 37745 ft 464 kts 262°
2026-04-10 14:16 56.32383 -37.55999 37759 ft 464 kts 262°
2026-04-10 14:17 56.30997 -37.67331 37763 ft 463 kts 262°
2026-04-10 14:17 56.29599 -37.78666 37773 ft 463 kts 262°
2026-04-10 14:18 56.28190 -37.89997 37776 ft 462 kts 262°
2026-04-10 14:18 56.26785 -38.01208 37783 ft 462 kts 262°
2026-04-10 14:19 56.25363 -38.12466 37800 ft 461 kts 262°
2026-04-10 14:19 56.24173 -38.21822 37802 ft 461 kts 262°
2026-04-10 14:20 56.22734 -38.33047 37808 ft 461 kts 262°
2026-04-10 14:20 56.21287 -38.44252 37820 ft 460 kts 262°
2026-04-10 14:21 56.19833 -38.55424 37829 ft 459 kts 262°
2026-04-10 14:21 56.18370 -38.66578 37830 ft 459 kts 261°
2026-04-10 14:22 56.16899 -38.77708 37837 ft 458 kts 261°
2026-04-10 14:22 56.15422 -38.88803 37847 ft 457 kts 261°
2026-04-10 14:23 56.13936 -38.99880 37855 ft 456 kts 261°
2026-04-10 14:23 56.12442 -39.10932 37861 ft 456 kts 261°
2026-04-10 14:24 56.10941 -39.21961 37864 ft 455 kts 261°
2026-04-10 14:24 56.09441 -39.32893 37883 ft 454 kts 261°
2026-04-10 14:25 56.07927 -39.43859 37890 ft 453 kts 261°
2026-04-10 14:25 56.06405 -39.54798 37897 ft 452 kts 261°
2026-04-10 14:26 56.04875 -39.65713 37908 ft 452 kts 261°
2026-04-10 14:26 56.03339 -39.76603 37907 ft 451 kts 261°
2026-04-10 14:27 56.01797 -39.87452 37913 ft 450 kts 261°
2026-04-10 14:27 56.00258 -39.98207 37921 ft 449 kts 261°
2026-04-10 14:28 55.98652 -40.09000 37925 ft 449 kts 260°
2026-04-10 14:28 55.96999 -40.19757 37932 ft 448 kts 260°
2026-04-10 14:29 55.95368 -40.30494 37937 ft 448 kts 260°
2026-04-10 14:29 55.93711 -40.41211 37946 ft 447 kts 260°
2026-04-10 14:30 55.92059 -40.51895 37950 ft 447 kts 260°
2026-04-10 14:30 55.90393 -40.62562 37957 ft 447 kts 259°
2026-04-10 14:31 55.88722 -40.73214 37968 ft 446 kts 259°
2026-04-10 14:31 55.87043 -40.83843 37972 ft 446 kts 259°
2026-04-10 14:32 55.85354 -40.94467 37978 ft 446 kts 259°
2026-04-10 14:32 55.83667 -41.05009 37985 ft 445 kts 259°
2026-04-10 14:33 55.81964 -41.15590 37997 ft 444 kts 259°
2026-04-10 14:33 55.80251 -41.26170 37998 ft 445 kts 259°
2026-04-10 14:34 55.78530 -41.36730 38003 ft 445 kts 259°
2026-04-10 14:34 55.76799 -41.47289 38008 ft 444 kts 259°
2026-04-10 14:35 55.75060 -41.57828 38015 ft 445 kts 259°
2026-04-10 14:35 55.73324 -41.68291 38020 ft 444 kts 258°
2026-04-10 14:36 55.71567 -41.78816 38031 ft 444 kts 258°
2026-04-10 14:36 55.69799 -41.89339 38044 ft 445 kts 258°
2026-04-10 14:37 55.68024 -41.99844 38037 ft 444 kts 258°
2026-04-10 14:37 55.66242 -42.10326 38046 ft 445 kts 258°
2026-04-10 14:38 55.64451 -42.20799 38054 ft 444 kts 258°
2026-04-10 14:38 55.62654 -42.31247 38056 ft 444 kts 258°
2026-04-10 14:39 55.60849 -42.41683 38058 ft 443 kts 258°
2026-04-10 14:39 55.59036 -42.52096 38073 ft 443 kts 258°
2026-04-10 14:40 55.57229 -42.62425 38079 ft 442 kts 257°
2026-04-10 14:40 55.55403 -42.72794 38083 ft 442 kts 257°
2026-04-10 14:41 55.53575 -42.83118 38084 ft 439 kts 257°
2026-04-10 14:41 55.51743 -42.93417 38091 ft 439 kts 257°
2026-04-10 14:42 55.49904 -43.03682 38092 ft 438 kts 257°
2026-04-10 14:42 55.48060 -43.13925 38097 ft 438 kts 257°
2026-04-10 14:43 55.46210 -43.24141 38106 ft 437 kts 257°
2026-04-10 14:43 55.44366 -43.34273 38120 ft 437 kts 257°
2026-04-10 14:44 55.42503 -43.44451 38122 ft 436 kts 257°
2026-04-10 14:44 55.40637 -43.54591 38119 ft 435 kts 256°
2026-04-10 14:45 55.38765 -43.64707 38126 ft 435 kts 256°
2026-04-10 14:45 55.36886 -43.74807 38132 ft 434 kts 256°
2026-04-10 14:46 55.34998 -43.84901 38134 ft 434 kts 256°
2026-04-10 14:46 55.33102 -43.94983 38137 ft 435 kts 256°
2026-04-10 14:47 55.31196 -44.05064 38145 ft 435 kts 256°
2026-04-10 14:47 55.29281 -44.15136 38153 ft 435 kts 256°
2026-04-10 14:48 55.27356 -44.25212 38148 ft 435 kts 255°
2026-04-10 14:48 55.25425 -44.35267 38159 ft 435 kts 255°
2026-04-10 14:49 55.23484 -44.45316 38160 ft 435 kts 255°
2026-04-10 14:49 55.21540 -44.55336 38166 ft 434 kts 255°
2026-04-10 14:50 55.19587 -44.65346 38169 ft 434 kts 255°
2026-04-10 14:50 55.17624 -44.75353 38172 ft 435 kts 255°
2026-04-10 14:51 55.15667 -44.85278 38179 ft 434 kts 255°
2026-04-10 14:51 55.13689 -44.95266 38180 ft 434 kts 255°
2026-04-10 14:52 55.11701 -45.05244 38184 ft 434 kts 254°
2026-04-10 14:52 55.09711 -45.15189 38185 ft 434 kts 254°
2026-04-10 14:53 55.07714 -45.25112 38193 ft 433 kts 254°
2026-04-10 14:53 55.05713 -45.35011 38191 ft 432 kts 254°
2026-04-10 14:54 55.03707 -45.44883 38200 ft 431 kts 254°
2026-04-10 14:54 55.01695 -45.54733 38199 ft 431 kts 253°
2026-04-10 14:55 54.99679 -45.64554 38205 ft 430 kts 253°
2026-04-10 14:55 54.97671 -45.74293 38204 ft 430 kts 253°
2026-04-10 14:56 54.95642 -45.84081 38208 ft 430 kts 253°
2026-04-10 14:56 54.93606 -45.93862 38208 ft 430 kts 253°
2026-04-10 14:57 54.91561 -46.03630 38209 ft 430 kts 253°
2026-04-10 14:57 54.89509 -46.13388 38214 ft 429 kts 253°
2026-04-10 14:58 54.87452 -46.23125 38211 ft 429 kts 252°
2026-04-10 14:58 54.85398 -46.32800 38216 ft 430 kts 252°
2026-04-10 14:59 54.83322 -46.42528 38217 ft 430 kts 252°
2026-04-10 14:59 54.81236 -46.52260 38217 ft 431 kts 252°
2026-04-10 15:00 54.79138 -46.62000 38235 ft 432 kts 252°
2026-04-10 15:00 54.77030 -46.71745 38226 ft 432 kts 252°
2026-04-10 15:01 54.74910 -46.81494 38222 ft 433 kts 252°
2026-04-10 15:01 54.72784 -46.91227 38227 ft 433 kts 252°
2026-04-10 15:02 54.70647 -47.00961 38225 ft 433 kts 251°
2026-04-10 15:02 54.68499 -47.10702 38231 ft 434 kts 251°
2026-04-10 15:03 54.66344 -47.20428 38221 ft 433 kts 251°
2026-04-10 15:03 54.64184 -47.30130 38229 ft 434 kts 251°
2026-04-10 15:04 54.62025 -47.39786 38230 ft 434 kts 251°
2026-04-10 15:04 54.59841 -47.49507 38236 ft 434 kts 251°
2026-04-10 15:05 54.56547 -47.64083 38229 ft 435 kts 251°
2026-04-10 15:05 54.54337 -47.73809 38227 ft 436 kts 251°
2026-04-10 15:06 54.52119 -47.83521 38227 ft 435 kts 251°
2026-04-10 15:06 54.50274 -47.91566 38230 ft 435 kts 251°
2026-04-10 15:07 54.48046 -48.01245 38227 ft 435 kts 251°
2026-04-10 15:07 54.45811 -48.10906 38231 ft 435 kts 251°
2026-04-10 15:08 54.43568 -48.20559 38228 ft 435 kts 250°
2026-04-10 15:08 54.41320 -48.30193 38225 ft 434 kts 250°
2026-04-10 15:09 54.39067 -48.39801 38224 ft 434 kts 250°
2026-04-10 15:09 54.36812 -48.49376 38224 ft 433 kts 250°
2026-04-10 15:10 54.34550 -48.58939 38222 ft 433 kts 250°
2026-04-10 15:10 54.32281 -48.68486 38222 ft 432 kts 250°
2026-04-10 15:11 54.30008 -48.78011 38212 ft 432 kts 250°
2026-04-10 15:11 54.27731 -48.87512 38208 ft 431 kts 250°
2026-04-10 15:12 54.25461 -48.96939 38207 ft 431 kts 250°
2026-04-10 15:12 54.23158 -49.06465 38206 ft 430 kts 250°
2026-04-10 15:13 54.20881 -49.15840 38200 ft 430 kts 250°
2026-04-10 15:13 54.18585 -49.25252 38200 ft 429 kts 250°
2026-04-10 15:14 54.16286 -49.34638 38195 ft 428 kts 249°
2026-04-10 15:14 54.13982 -49.44005 38192 ft 428 kts 249°
2026-04-10 15:15 54.11669 -49.53364 38188 ft 428 kts 249°
2026-04-10 15:15 54.09355 -49.62692 38185 ft 427 kts 249°
2026-04-10 15:16 54.07031 -49.72019 38178 ft 427 kts 249°
2026-04-10 15:16 54.04722 -49.81249 38174 ft 427 kts 249°
2026-04-10 15:17 54.02390 -49.90530 38171 ft 426 kts 249°
2026-04-10 15:17 54.00053 -49.99791 38171 ft 426 kts 249°
2026-04-10 15:18 53.97814 -50.09104 38171 ft 426 kts 249°
2026-04-10 15:18 53.95553 -50.18402 38166 ft 426 kts 249°
2026-04-10 15:19 53.93301 -50.27696 38165 ft 426 kts 249°
2026-04-10 15:19 53.91038 -50.36955 38158 ft 424 kts 249°
2026-04-10 15:20 53.88775 -50.46198 38156 ft 425 kts 249°
2026-04-10 15:20 53.86498 -50.55445 38149 ft 425 kts 249°
2026-04-10 15:21 53.84216 -50.64684 38149 ft 425 kts 249°
2026-04-10 15:21 53.81922 -50.73924 38155 ft 426 kts 249°
2026-04-10 15:22 53.79623 -50.83152 38150 ft 425 kts 249°
2026-04-10 15:22 53.77318 -50.92361 38143 ft 425 kts 248°
2026-04-10 15:23 53.75007 -51.01560 38132 ft 425 kts 248°
2026-04-10 15:23 53.72700 -51.10701 38137 ft 426 kts 248°
2026-04-10 15:24 53.70371 -51.19892 38127 ft 426 kts 248°
2026-04-10 15:24 53.68032 -51.29087 38126 ft 427 kts 248°
2026-04-10 15:25 53.65687 -51.38267 38128 ft 426 kts 248°
2026-04-10 15:25 53.63336 -51.47433 38125 ft 426 kts 248°
2026-04-10 15:26 53.60975 -51.56597 38123 ft 426 kts 248°
2026-04-10 15:26 53.58613 -51.65729 38120 ft 426 kts 248°
2026-04-10 15:27 53.56236 -51.74886 38115 ft 427 kts 248°
2026-04-10 15:27 53.53848 -51.84044 38120 ft 427 kts 247°
2026-04-10 15:28 53.51466 -51.93141 38108 ft 428 kts 247°
2026-04-10 15:28 53.49060 -52.02297 38111 ft 429 kts 247°
2026-04-10 15:29 53.46642 -52.11460 38108 ft 429 kts 247°
2026-04-10 15:29 53.44216 -52.20614 38106 ft 430 kts 247°
2026-04-10 15:30 53.41781 -52.29768 38104 ft 430 kts 247°
2026-04-10 15:30 53.39337 -52.38918 38102 ft 430 kts 247°
2026-04-10 15:31 53.36885 -52.48060 38099 ft 430 kts 247°
2026-04-10 15:31 53.34425 -52.57194 38095 ft 431 kts 247°
2026-04-10 15:32 53.31955 -52.66333 38092 ft 431 kts 246°
2026-04-10 15:32 53.29476 -52.75465 38092 ft 431 kts 246°
2026-04-10 15:33 53.26991 -52.84586 38090 ft 431 kts 246°
2026-04-10 15:33 53.24501 -52.93686 38087 ft 431 kts 246°
2026-04-10 15:34 53.22006 -53.02771 38085 ft 430 kts 246°
2026-04-10 15:34 53.19506 -53.11839 38084 ft 430 kts 246°
2026-04-10 15:35 53.17006 -53.20871 38084 ft 429 kts 246°
2026-04-10 15:35 53.14514 -53.29838 38081 ft 429 kts 246°
2026-04-10 15:36 53.12002 -53.38842 38084 ft 428 kts 246°
2026-04-10 15:36 53.09487 -53.47823 38083 ft 428 kts 246°
2026-04-10 15:37 53.06969 -53.56780 38081 ft 427 kts 246°
2026-04-10 15:37 53.04448 -53.65712 38079 ft 427 kts 246°
2026-04-10 15:38 53.01923 -53.74626 38080 ft 426 kts 246°
2026-04-10 15:38 52.99394 -53.83520 38082 ft 425 kts 246°
2026-04-10 15:39 52.96863 -53.92387 38083 ft 425 kts 245°
2026-04-10 15:39 52.94325 -54.01244 38081 ft 425 kts 245°
2026-04-10 15:40 52.91780 -54.10092 38079 ft 425 kts 245°
2026-04-10 15:40 52.89242 -54.18887 38079 ft 425 kts 245°
2026-04-10 15:41 52.86684 -54.27712 38075 ft 425 kts 245°
2026-04-10 15:41 52.84119 -54.36533 38077 ft 425 kts 245°
2026-04-10 15:42 52.81547 -54.45344 38074 ft 426 kts 245°
2026-04-10 15:42 52.78967 -54.54147 38070 ft 426 kts 245°
2026-04-10 15:43 52.76379 -54.62948 38070 ft 426 kts 245°
2026-04-10 15:43 52.73781 -54.71748 38068 ft 426 kts 245°
2026-04-10 15:44 52.71182 -54.80523 38070 ft 426 kts 245°
2026-04-10 15:44 52.68573 -54.89295 38064 ft 426 kts 245°
2026-04-10 15:45 52.65957 -54.98059 38058 ft 427 kts 244°
2026-04-10 15:45 52.63327 -55.06838 38057 ft 427 kts 244°
2026-04-10 15:46 52.60693 -55.15600 38060 ft 427 kts 244°
2026-04-10 15:46 52.58054 -55.24344 38052 ft 427 kts 244°
2026-04-10 15:47 52.55407 -55.33083 38050 ft 427 kts 244°
2026-04-10 15:47 52.52760 -55.41793 38053 ft 426 kts 244°
2026-04-10 15:48 52.50121 -55.50442 38051 ft 426 kts 244°
2026-04-10 15:48 52.47459 -55.59138 38048 ft 426 kts 244°
2026-04-10 15:49 52.44789 -55.67826 38046 ft 427 kts 244°
2026-04-10 15:49 52.42114 -55.76501 38046 ft 427 kts 244°
2026-04-10 15:50 52.39251 -55.85014 38073 ft 428 kts 236°
2026-04-10 15:50 52.35757 -55.92937 38064 ft 430 kts 236°
2026-04-10 15:51 52.32242 -56.00867 38060 ft 430 kts 236°
2026-04-10 15:51 52.28720 -56.08787 38061 ft 431 kts 236°
2026-04-10 15:52 52.25187 -56.16709 38057 ft 432 kts 236°
2026-04-10 15:52 52.21641 -56.24634 38063 ft 432 kts 236°
2026-04-10 15:53 52.18092 -56.32541 38075 ft 433 kts 236°
2026-04-10 15:53 52.14529 -56.40454 38083 ft 433 kts 236°
2026-04-10 15:54 52.10980 -56.48314 38083 ft 434 kts 236°
2026-04-10 15:54 52.07402 -56.56212 38092 ft 434 kts 236°
2026-04-10 15:55 52.04391 -56.62840 38090 ft 435 kts 236°
2026-04-10 15:55 52.00791 -56.70742 38098 ft 436 kts 236°
2026-04-10 15:56 51.97176 -56.78654 38114 ft 437 kts 236°
2026-04-10 15:56 51.93572 -56.86516 38112 ft 438 kts 236°
2026-04-10 15:57 51.89932 -56.94433 38117 ft 438 kts 236°
2026-04-10 15:57 51.86284 -57.02343 38123 ft 439 kts 236°
2026-04-10 15:58 51.82626 -57.10250 38128 ft 439 kts 236°
2026-04-10 15:58 51.78962 -57.18147 38135 ft 439 kts 236°
2026-04-10 15:59 51.75291 -57.26033 38140 ft 439 kts 236°
2026-04-10 15:59 51.71617 -57.33901 38145 ft 439 kts 236°
2026-04-10 16:00 51.67934 -57.41766 38145 ft 439 kts 236°
2026-04-10 16:00 51.64248 -57.49613 38141 ft 439 kts 236°
2026-04-10 16:01 51.60558 -57.57445 38136 ft 439 kts 236°
2026-04-10 16:01 51.56866 -57.65257 38131 ft 439 kts 236°
2026-04-10 16:02 51.53171 -57.73052 38117 ft 438 kts 236°
2026-04-10 16:02 51.49474 -57.80822 38118 ft 437 kts 236°
2026-04-10 16:03 51.45777 -57.88581 38119 ft 437 kts 236°
2026-04-10 16:03 51.42076 -57.96315 38124 ft 437 kts 236°
2026-04-10 16:04 51.38396 -58.03988 38116 ft 437 kts 236°
2026-04-10 16:04 51.34664 -58.11740 38126 ft 436 kts 236°
2026-04-10 16:05 51.30988 -58.19360 38122 ft 436 kts 236°
2026-04-10 16:05 51.27274 -58.27030 38117 ft 436 kts 236°
2026-04-10 16:06 51.23563 -58.34675 38116 ft 435 kts 236°
2026-04-10 16:06 51.19848 -58.42304 38119 ft 435 kts 236°
2026-04-10 16:07 51.16128 -58.49921 38119 ft 436 kts 236°
2026-04-10 16:07 51.12401 -58.57530 38119 ft 435 kts 236°
2026-04-10 16:08 51.08671 -58.65123 38123 ft 435 kts 236°
2026-04-10 16:08 51.04941 -58.72694 38123 ft 435 kts 236°
2026-04-10 16:09 51.01211 -58.80243 38127 ft 434 kts 236°
2026-04-10 16:09 50.97473 -58.87786 38126 ft 434 kts 236°
2026-04-10 16:10 50.93730 -58.95316 38131 ft 434 kts 236°
2026-04-10 16:10 50.90008 -59.02782 38130 ft 434 kts 236°
2026-04-10 16:11 50.86259 -59.10282 38133 ft 434 kts 236°
2026-04-10 16:11 50.82501 -59.17778 38145 ft 435 kts 236°
2026-04-10 16:12 50.78738 -59.25262 38140 ft 434 kts 236°
2026-04-10 16:13 50.73100 -59.36436 38142 ft 434 kts 236°
2026-04-10 16:13 50.69355 -59.43831 38144 ft 434 kts 236°
2026-04-10 16:14 50.65582 -59.51261 38146 ft 434 kts 236°
2026-04-10 16:14 50.61796 -59.58694 38146 ft 435 kts 236°
2026-04-10 16:15 50.58005 -59.66117 38154 ft 436 kts 236°
2026-04-10 16:15 50.54199 -59.73545 38154 ft 435 kts 236°
2026-04-10 16:16 50.50395 -59.80952 38157 ft 435 kts 236°
2026-04-10 16:16 50.46584 -59.88349 38158 ft 435 kts 236°
2026-04-10 16:17 50.42776 -59.95721 38162 ft 434 kts 236°
2026-04-10 16:17 50.38969 -60.03067 38164 ft 433 kts 236°
2026-04-10 16:18 50.35164 -60.10392 38165 ft 433 kts 236°
2026-04-10 16:18 50.31362 -60.17690 38161 ft 432 kts 236°
2026-04-10 16:19 50.27579 -60.24930 38159 ft 432 kts 236°
2026-04-10 16:19 50.23771 -60.32198 38168 ft 432 kts 236°
2026-04-10 16:20 50.19962 -60.39449 38163 ft 431 kts 236°
2026-04-10 16:20 50.16154 -60.46677 38163 ft 431 kts 235°
2026-04-10 16:21 50.12343 -60.53891 38166 ft 431 kts 235°
2026-04-10 16:21 50.08531 -60.61085 38167 ft 430 kts 235°
2026-04-10 16:22 50.04727 -60.68246 38162 ft 429 kts 235°
2026-04-10 16:22 50.00918 -60.75397 38162 ft 429 kts 235°
2026-04-10 16:23 49.97137 -60.82477 38161 ft 428 kts 235°
2026-04-10 16:23 49.93328 -60.89589 38159 ft 428 kts 235°
2026-04-10 16:24 49.89512 -60.96694 38162 ft 428 kts 235°
2026-04-10 16:24 49.85698 -61.03777 38158 ft 427 kts 235°
2026-04-10 16:25 49.81885 -61.10839 38171 ft 427 kts 235°
2026-04-10 16:25 49.78066 -61.17891 38161 ft 427 kts 235°
2026-04-10 16:26 49.74248 -61.24926 38157 ft 427 kts 235°
2026-04-10 16:26 49.70425 -61.31947 38159 ft 427 kts 235°
2026-04-10 16:27 49.66597 -61.38962 38160 ft 427 kts 234°
2026-04-10 16:27 49.62761 -61.45971 38157 ft 428 kts 234°
2026-04-10 16:28 49.58943 -61.52928 38164 ft 427 kts 234°
2026-04-10 16:28 49.55073 -61.59962 38164 ft 427 kts 234°
2026-04-10 16:29 49.51253 -61.66885 38164 ft 428 kts 234°
2026-04-10 16:29 49.47402 -61.73849 38167 ft 427 kts 234°
2026-04-10 16:30 49.43541 -61.80810 38166 ft 427 kts 234°
2026-04-10 16:30 49.39683 -61.87748 38169 ft 427 kts 234°
2026-04-10 16:31 49.35819 -61.94679 38171 ft 427 kts 234°
2026-04-10 16:31 49.31948 -62.01603 38182 ft 428 kts 234°
2026-04-10 16:32 49.28070 -62.08522 38191 ft 428 kts 234°
2026-04-10 16:32 49.24181 -62.15442 38185 ft 428 kts 234°
2026-04-10 16:33 49.20297 -62.22334 38187 ft 428 kts 234°
2026-04-10 16:33 49.16405 -62.29224 38188 ft 428 kts 234°
2026-04-10 16:34 49.12513 -62.36096 38186 ft 428 kts 234°
2026-04-10 16:34 49.08611 -62.42966 38189 ft 428 kts 234°
2026-04-10 16:35 49.04703 -62.49829 38191 ft 429 kts 234°
2026-04-10 16:35 49.00809 -62.56650 38185 ft 430 kts 234°
2026-04-10 16:36 48.96880 -62.63513 38181 ft 430 kts 233°
2026-04-10 16:36 48.92950 -62.70361 38194 ft 430 kts 233°
2026-04-10 16:37 48.89008 -62.77212 38182 ft 431 kts 233°
2026-04-10 16:37 48.85056 -62.84062 38176 ft 431 kts 233°
2026-04-10 16:38 48.81099 -62.90904 38174 ft 431 kts 233°
2026-04-10 16:38 48.77140 -62.97732 38176 ft 431 kts 233°
2026-04-10 16:39 48.73202 -63.04506 38176 ft 431 kts 233°
2026-04-10 16:39 48.69230 -63.11320 38171 ft 432 kts 233°
2026-04-10 16:40 48.65250 -63.18129 38177 ft 432 kts 233°
2026-04-10 16:40 48.61261 -63.24937 38178 ft 433 kts 233°
2026-04-10 16:41 48.57262 -63.31744 38181 ft 433 kts 233°
2026-04-10 16:41 48.53258 -63.38543 38188 ft 434 kts 233°
2026-04-10 16:42 48.49243 -63.45343 38180 ft 433 kts 233°
2026-04-10 16:42 48.45907 -63.50980 38182 ft 433 kts 233°
2026-04-10 16:43 48.41892 -63.57748 38180 ft 433 kts 233°
2026-04-10 16:43 48.37872 -63.64505 38180 ft 434 kts 232°
2026-04-10 16:44 48.33842 -63.71264 38181 ft 434 kts 232°
2026-04-10 16:44 48.29799 -63.78026 38188 ft 435 kts 232°
2026-04-10 16:45 48.25748 -63.84785 38188 ft 436 kts 232°
2026-04-10 16:45 48.21685 -63.91547 38193 ft 436 kts 232°
2026-04-10 16:46 48.17618 -63.98295 38201 ft 437 kts 232°
2026-04-10 16:46 48.13566 -64.05004 38198 ft 437 kts 232°
2026-04-10 16:47 48.09481 -64.11751 38188 ft 438 kts 232°
2026-04-10 16:47 48.05387 -64.18493 38195 ft 438 kts 232°
2026-04-10 16:48 48.01286 -64.25232 38194 ft 438 kts 231°
2026-04-10 16:48 47.97176 -64.31967 38192 ft 439 kts 231°
2026-04-10 16:49 47.93061 -64.38694 38191 ft 440 kts 231°
2026-04-10 16:49 47.88956 -64.45388 38192 ft 440 kts 231°
2026-04-10 16:50 47.84818 -64.52116 38186 ft 441 kts 231°
2026-04-10 16:50 47.80678 -64.58833 38188 ft 440 kts 231°
2026-04-10 16:51 47.76535 -64.65536 38188 ft 440 kts 231°
2026-04-10 16:51 47.72386 -64.72232 38188 ft 440 kts 231°
2026-04-10 16:52 47.68245 -64.78899 38185 ft 439 kts 231°
2026-04-10 16:52 47.64105 -64.85548 38188 ft 440 kts 231°
2026-04-10 16:53 47.59946 -64.92209 38189 ft 439 kts 231°
2026-04-10 16:53 47.55790 -64.98849 38189 ft 439 kts 230°
2026-04-10 16:54 47.51631 -65.05478 38187 ft 439 kts 230°
2026-04-10 16:54 47.47473 -65.12088 38184 ft 439 kts 230°
2026-04-10 16:55 47.43308 -65.18694 38187 ft 439 kts 230°
2026-04-10 16:55 47.39139 -65.25289 38185 ft 439 kts 230°
2026-04-10 16:56 47.34993 -65.31832 38204 ft 439 kts 230°
2026-04-10 16:56 47.30818 -65.38404 38205 ft 440 kts 230°
2026-04-10 16:57 47.26629 -65.44981 38198 ft 440 kts 230°
2026-04-10 16:57 47.22429 -65.51560 38197 ft 441 kts 230°
2026-04-10 16:58 47.18218 -65.58138 38196 ft 442 kts 230°
2026-04-10 16:58 47.14000 -65.64711 38199 ft 441 kts 229°
2026-04-10 16:59 47.09781 -65.71272 38195 ft 442 kts 229°
2026-04-10 16:59 47.05554 -65.77826 38200 ft 442 kts 229°
2026-04-10 17:00 47.01349 -65.84333 38201 ft 443 kts 229°
2026-04-10 17:00 46.97104 -65.90882 38204 ft 443 kts 229°
2026-04-10 17:01 46.92857 -65.97421 38206 ft 443 kts 229°
2026-04-10 17:01 46.88606 -66.03949 38205 ft 443 kts 229°
2026-04-10 17:02 46.84348 -66.10473 38207 ft 444 kts 229°
2026-04-10 17:02 46.80083 -66.16989 38212 ft 444 kts 229°
2026-04-10 17:03 46.75819 -66.23490 38213 ft 443 kts 229°
2026-04-10 17:03 46.71556 -66.29971 38212 ft 442 kts 229°
2026-04-10 17:04 46.67299 -66.36430 38216 ft 442 kts 229°
2026-04-10 17:04 46.63034 -66.42884 38211 ft 442 kts 229°
2026-04-10 17:05 46.58775 -66.49314 38211 ft 441 kts 229°
2026-04-10 17:05 46.54513 -66.55732 38213 ft 441 kts 228°
2026-04-10 17:06 46.50243 -66.62147 38215 ft 442 kts 228°
2026-04-10 17:06 46.45993 -66.68516 38218 ft 442 kts 228°
2026-04-10 17:07 46.41715 -66.74913 38218 ft 442 kts 228°
2026-04-10 17:07 46.37426 -66.81311 38216 ft 442 kts 228°
2026-04-10 17:08 46.33139 -66.87689 38220 ft 442 kts 228°
2026-04-10 17:08 46.28842 -66.94068 38226 ft 443 kts 228°
2026-04-10 17:09 46.24545 -67.00431 38227 ft 443 kts 228°
2026-04-10 17:09 46.20240 -67.06791 38227 ft 443 kts 228°
2026-04-10 17:10 46.15932 -67.13141 38225 ft 443 kts 228°
2026-04-10 17:10 46.11619 -67.19482 38231 ft 443 kts 227°
2026-04-10 17:11 46.07304 -67.25811 38225 ft 442 kts 227°
2026-04-10 17:11 46.02987 -67.32128 38224 ft 443 kts 227°
2026-04-10 17:12 45.98660 -67.38446 38214 ft 443 kts 227°
2026-04-10 17:12 45.94330 -67.44752 38216 ft 443 kts 227°
2026-04-10 17:13 45.89997 -67.51047 38210 ft 443 kts 227°
2026-04-10 17:13 45.85660 -67.57334 38214 ft 444 kts 227°
2026-04-10 17:14 45.81311 -67.63624 38227 ft 448 kts 227°
2026-04-10 17:14 45.76917 -67.69963 38231 ft 449 kts 227°
2026-04-10 17:15 45.72509 -67.76308 38234 ft 449 kts 227°
2026-04-10 17:15 45.68023 -67.82528 38233 ft 450 kts 225°
2026-04-10 17:16 45.63397 -67.88567 38238 ft 450 kts 225°
2026-04-10 17:16 45.58764 -67.94595 38237 ft 451 kts 225°
2026-04-10 17:17 45.54127 -68.00614 38241 ft 450 kts 225°
2026-04-10 17:17 45.49483 -68.06630 38233 ft 451 kts 224°
2026-04-10 17:18 45.44835 -68.12635 38249 ft 451 kts 224°
2026-04-10 17:18 45.40185 -68.18630 38251 ft 451 kts 224°
2026-04-10 17:19 45.35533 -68.24612 38250 ft 451 kts 224°
2026-04-10 17:19 45.30908 -68.30548 38246 ft 451 kts 224°
2026-04-10 17:20 45.26252 -68.36509 38250 ft 451 kts 224°
2026-04-10 17:20 45.21592 -68.42460 38257 ft 451 kts 224°
2026-04-10 17:21 45.14586 -68.51383 38250 ft 451 kts 224°
2026-04-10 17:21 45.09917 -68.57313 38253 ft 451 kts 224°
2026-04-10 17:22 45.05246 -68.63231 38250 ft 451 kts 224°
2026-04-10 17:22 45.00572 -68.69141 38248 ft 451 kts 224°
2026-04-10 17:23 44.95922 -68.75005 38182 ft 451 kts 224°
2026-04-10 17:23 44.91255 -68.80877 38249 ft 449 kts 225°
2026-04-10 17:24 44.86585 -68.86742 38236 ft 449 kts 225°
2026-04-10 17:24 44.81911 -68.92597 38238 ft 449 kts 225°
2026-04-10 17:25 44.77238 -68.98438 38244 ft 449 kts 224°
2026-04-10 17:25 44.72554 -69.04279 38240 ft 450 kts 224°
2026-04-10 17:26 44.67863 -69.10116 38239 ft 450 kts 224°
2026-04-10 17:26 44.63164 -69.15950 38242 ft 450 kts 224°
2026-04-10 17:27 44.58462 -69.21775 38236 ft 451 kts 224°
2026-04-10 17:27 44.53777 -69.27564 38224 ft 452 kts 224°
2026-04-10 17:28 44.49057 -69.33385 38216 ft 452 kts 224°
2026-04-10 17:28 44.44327 -69.39205 38214 ft 453 kts 224°
2026-04-10 17:29 44.39586 -69.45025 38210 ft 454 kts 224°
2026-04-10 17:29 44.34832 -69.50848 38238 ft 455 kts 224°
2026-04-10 17:30 44.30063 -69.56677 38231 ft 456 kts 224°
2026-04-10 17:30 44.25285 -69.62503 38227 ft 456 kts 224°
2026-04-10 17:31 44.21307 -69.67344 38231 ft 457 kts 224°
2026-04-10 17:31 44.16511 -69.73168 38239 ft 457 kts 224°
2026-04-10 17:32 44.11713 -69.78982 38275 ft 457 kts 224°
2026-04-10 17:32 44.06910 -69.84788 38270 ft 458 kts 224°
2026-04-10 17:33 44.02100 -69.90590 38269 ft 457 kts 224°
2026-04-10 17:33 43.97293 -69.96376 38265 ft 457 kts 224°
2026-04-10 17:34 43.92482 -70.02154 38271 ft 457 kts 224°
2026-04-10 17:34 43.87666 -70.07924 38269 ft 458 kts 224°
2026-04-10 17:35 43.82876 -70.13652 38268 ft 458 kts 224°
2026-04-10 17:35 43.78056 -70.19401 38247 ft 457 kts 224°
2026-04-10 17:36 43.73228 -70.25148 38239 ft 457 kts 224°
2026-04-10 17:36 43.68434 -70.30841 38240 ft 452 kts 224°
2026-04-10 17:37 43.63657 -70.36504 38242 ft 452 kts 224°
2026-04-10 17:37 43.58876 -70.42157 38242 ft 452 kts 223°
2026-04-10 17:38 43.54093 -70.47801 38242 ft 453 kts 223°
2026-04-10 17:38 43.49300 -70.53444 38239 ft 453 kts 223°
2026-04-10 17:39 43.44478 -70.59069 38238 ft 456 kts 219°
2026-04-10 17:39 43.38876 -70.63167 38261 ft 466 kts 203°
2026-04-10 17:40 43.32757 -70.66196 38247 ft 468 kts 203°
2026-04-10 17:40 43.26636 -70.69195 38250 ft 466 kts 204°
2026-04-10 17:41 43.20516 -70.72205 38246 ft 468 kts 203°
2026-04-10 17:41 43.14379 -70.75205 38233 ft 468 kts 203°
2026-04-10 17:42 43.08238 -70.78208 38232 ft 470 kts 203°
2026-04-10 17:42 43.02077 -70.81211 38230 ft 470 kts 203°
2026-04-10 17:43 42.95909 -70.84212 38233 ft 471 kts 203°
2026-04-10 17:43 42.89728 -70.87212 38238 ft 471 kts 203°
2026-04-10 17:44 42.83542 -70.90209 38265 ft 472 kts 203°
2026-04-10 17:44 42.77347 -70.93204 38267 ft 472 kts 203°
2026-04-10 17:45 42.71138 -70.96198 38266 ft 474 kts 203°
2026-04-10 17:45 42.64921 -70.99190 38260 ft 474 kts 203°
2026-04-10 17:46 42.58731 -71.02162 38259 ft 474 kts 203°
2026-04-10 17:46 42.52510 -71.05144 38258 ft 475 kts 203°
2026-04-10 17:47 42.46269 -71.08128 38273 ft 475 kts 203°
2026-04-10 17:47 42.40038 -71.11102 38269 ft 476 kts 203°
2026-04-10 17:48 42.33789 -71.14077 38266 ft 476 kts 203°
2026-04-10 17:48 42.27540 -71.17046 38276 ft 474 kts 203°
2026-04-10 17:49 42.21316 -71.19998 38280 ft 475 kts 203°
2026-04-10 17:49 42.15069 -71.22954 38279 ft 476 kts 203°
2026-04-10 17:50 42.09862 -71.25413 38279 ft 477 kts 203°
2026-04-10 17:51 42.06801 -71.26857 38283 ft 477 kts 203°
2026-04-10 17:51 42.00531 -71.29809 38295 ft 478 kts 203°
2026-04-10 17:52 41.94258 -71.32757 38296 ft 478 kts 203°
2026-04-10 17:52 41.88043 -71.35669 38291 ft 470 kts 203°
2026-04-10 17:53 41.81900 -71.38546 38330 ft 467 kts 203°
2026-04-10 17:53 41.78836 -71.39978 38042 ft 464 kts 203°
2026-04-10 17:53 41.75771 -71.41409 37253 ft 466 kts 203°
2026-04-10 17:54 41.72839 -71.43112 36794 ft 456 kts 213°
2026-04-10 17:54 41.70193 -71.45487 36265 ft 459 kts 223°
2026-04-10 17:54 41.67727 -71.48225 35733 ft 461 kts 223°
2026-04-10 17:54 41.65277 -71.50957 35204 ft 456 kts 223°
2026-04-10 17:55 41.62861 -71.53665 34677 ft 451 kts 223°
2026-04-10 17:55 41.60461 -71.56344 34150 ft 447 kts 222°
2026-04-10 17:55 41.58081 -71.58989 33635 ft 442 kts 223°
2026-04-10 17:55 41.55728 -71.61603 33153 ft 439 kts 223°
2026-04-10 17:56 41.53377 -71.64221 32672 ft 442 kts 223°
2026-04-10 17:56 41.50988 -71.66880 32228 ft 453 kts 223°
2026-04-10 17:56 41.48564 -71.69567 31711 ft 451 kts 223°
2026-04-10 17:56 41.46165 -71.72217 31211 ft 445 kts 223°
2026-04-10 17:57 41.43799 -71.74836 30728 ft 440 kts 224°
2026-04-10 17:57 41.41457 -71.77433 30218 ft 435 kts 224°
2026-04-10 17:57 41.39149 -71.79984 29735 ft 428 kts 224°
2026-04-10 17:57 41.36874 -71.82493 29264 ft 422 kts 223°
2026-04-10 17:58 41.34618 -71.84983 28800 ft 420 kts 223°
2026-04-10 17:58 41.32364 -71.87469 28344 ft 421 kts 223°
2026-04-10 17:58 41.30110 -71.89951 27881 ft 419 kts 223°
2026-04-10 17:58 41.27882 -71.92399 27440 ft 412 kts 223°
2026-04-10 17:59 41.25690 -71.94806 27000 ft 407 kts 223°
2026-04-10 17:59 41.23518 -71.97193 26562 ft 405 kts 222°
2026-04-10 17:59 41.21343 -71.99582 26130 ft 406 kts 222°
2026-04-10 17:59 41.19163 -72.01970 25695 ft 404 kts 222°
2026-04-10 18:00 41.17012 -72.04322 25298 ft 397 kts 221°
2026-04-10 18:00 41.14924 -72.06607 24875 ft 393 kts 221°
2026-04-10 18:00 41.12827 -72.08901 24458 ft 387 kts 221°
2026-04-10 18:00 41.10890 -72.11302 24072 ft 378 kts 232°
2026-04-10 18:01 41.09482 -72.14226 23630 ft 376 kts 246°
2026-04-10 18:01 41.08590 -72.17475 23220 ft 375 kts 252°
2026-04-10 18:01 41.07766 -72.20760 22821 ft 374 kts 252°
2026-04-10 18:01 41.06972 -72.24003 22418 ft 366 kts 252°
2026-04-10 18:02 41.06184 -72.27205 22032 ft 364 kts 252°
2026-04-10 18:02 41.05389 -72.30397 21647 ft 366 kts 252°
2026-04-10 18:02 41.04588 -72.33604 21253 ft 365 kts 252°
2026-04-10 18:02 41.03802 -72.36763 20861 ft 357 kts 252°
2026-04-10 18:03 41.03027 -72.39879 20501 ft 356 kts 252°
2026-04-10 18:03 41.02250 -72.42992 20138 ft 357 kts 252°
2026-04-10 18:03 41.01468 -72.46119 19759 ft 356 kts 252°
2026-04-10 18:03 41.00696 -72.49199 19398 ft 349 kts 252°
2026-04-10 18:04 40.99933 -72.52246 19042 ft 349 kts 252°
2026-04-10 18:04 40.99165 -72.55310 18687 ft 350 kts 252°
2026-04-10 18:04 40.98400 -72.58354 18279 ft 346 kts 252°
2026-04-10 18:04 40.97645 -72.61349 17767 ft 341 kts 252°
2026-04-10 18:05 40.96895 -72.64330 17041 ft 342 kts 252°
2026-04-10 18:05 40.96151 -72.67279 16757 ft 333 kts 252°
2026-04-10 18:05 40.95429 -72.70139 16509 ft 325 kts 252°
2026-04-10 18:05 40.94710 -72.72981 16184 ft 327 kts 252°
2026-04-10 18:06 40.93987 -72.75843 15848 ft 328 kts 252°
2026-04-10 18:06 40.93155 -72.78658 15493 ft 331 kts 240°
2026-04-10 18:06 40.91704 -72.81037 15170 ft 333 kts 223°
2026-04-10 18:06 40.89874 -72.82860 14823 ft 329 kts 219°
2026-04-10 18:07 40.88016 -72.84648 14476 ft 331 kts 218°
2026-04-10 18:07 40.86377 -72.86695 13806 ft 328 kts 239°
2026-04-10 18:07 40.85576 -72.89442 13290 ft 318 kts 261°
2026-04-10 18:07 40.85270 -72.92295 12787 ft 311 kts 262°
2026-04-10 18:08 40.84962 -72.95094 12259 ft 306 kts 259°
2026-04-10 18:08 40.84521 -72.97829 11658 ft 304 kts 257°
2026-04-10 18:08 40.84035 -73.00537 11049 ft 302 kts 257°
2026-04-10 18:08 40.83593 -73.03225 10400 ft 295 kts 258°
2026-04-10 18:09 40.82784 -73.08327 9512 ft 272 kts 257°
2026-04-10 18:09 40.82392 -73.10716 9241 ft 261 kts 257°
2026-04-10 18:09 40.82010 -73.13053 8978 ft 262 kts 257°
2026-04-10 18:10 40.81627 -73.15405 8721 ft 263 kts 257°
2026-04-10 18:10 40.81243 -73.17766 8466 ft 264 kts 258°
2026-04-10 18:10 40.80862 -73.20099 8198 ft 257 kts 257°
2026-04-10 18:10 40.80488 -73.22372 7947 ft 250 kts 257°
2026-04-10 18:11 40.80125 -73.24592 7681 ft 242 kts 257°
2026-04-10 18:11 40.79777 -73.26723 7439 ft 234 kts 257°
2026-04-10 18:11 40.79463 -73.28620 7222 ft 229 kts 257°
2026-04-10 18:11 40.79174 -73.30657 6995 ft 223 kts 266°
2026-04-10 18:12 40.79246 -73.32707 6776 ft 226 kts 271°
2026-04-10 18:12 40.79268 -73.34783 6539 ft 227 kts 270°
2026-04-10 18:12 40.79293 -73.36876 6313 ft 229 kts 270°
2026-04-10 18:12 40.79330 -73.38970 6086 ft 227 kts 270°
2026-04-10 18:13 40.79368 -73.41024 5974 ft 224 kts 270°
2026-04-10 18:13 40.79404 -73.43091 5677 ft 225 kts 270°
2026-04-10 18:13 40.79442 -73.45144 5384 ft 222 kts 270°
2026-04-10 18:13 40.79475 -73.47189 5148 ft 225 kts 270°
2026-04-10 18:14 40.79500 -73.48460 4993 ft 220 kts 270°
2026-04-10 18:14 40.79541 -73.51129 4709 ft 222 kts 270°
2026-04-10 18:14 40.79575 -73.53158 4454 ft 218 kts 270°
2026-04-10 18:14 40.79608 -73.55133 4242 ft 212 kts 270°
2026-04-10 18:15 40.79641 -73.57054 4025 ft 207 kts 270°
2026-04-10 18:15 40.79670 -73.58922 3921 ft 199 kts 270°
2026-04-10 18:15 40.79695 -73.60716 3760 ft 197 kts 270°
2026-04-10 18:15 40.79623 -73.62490 3516 ft 191 kts 256°
2026-04-10 18:16 40.78867 -73.63870 3375 ft 184 kts 225°
2026-04-10 18:16 40.77896 -73.64931 3141 ft 185 kts 217°
2026-04-10 18:16 40.76803 -73.65820 2891 ft 180 kts 216°
2026-04-10 18:16 40.75759 -73.66643 2658 ft 175 kts 214°
2026-04-10 18:17 40.74708 -73.67462 2415 ft 172 kts 213°
2026-04-10 18:17 40.73740 -73.68231 2212 ft 159 kts 214°
2026-04-10 18:17 40.73105 -73.68722 2063 ft 154 kts 213°
2026-04-10 18:17 40.71945 -73.69647 1764 ft 135 kts 213°
2026-04-10 18:18 40.71153 -73.70275 1595 ft 137 kts 213°
2026-04-10 18:18 40.70375 -73.70889 1404 ft 126 kts 212°
2026-04-10 18:18 40.69871 -73.71280 1316 ft 126 kts 211°
2026-04-10 18:18 40.69113 -73.71873 1132 ft 127 kts 211°
2026-04-10 18:19 40.68362 -73.72472 968 ft 129 kts 210°
2026-04-10 18:19 40.67585 -73.73084 753 ft 130 kts 207°
2026-04-10 18:19 40.66808 -73.73696 607 ft 133 kts 209°
2026-04-10 18:19 40.66015 -73.74335 381 ft 130 kts 207°
2026-04-10 18:20 40.65232 -73.74937 221 ft 134 kts 206°
2026-04-10 18:20 40.64439 -73.75557 53 ft 129 kts 207°
2026-04-10 18:20 40.63764 -73.76079 27 ft 83 kts 211°
2026-04-10 18:20 40.63386 -73.76378 29 ft 56 kts 210°
2026-04-10 18:21 40.63103 -73.76597 25 ft 38 kts 212°
2026-04-10 18:21 40.62978 -73.76782 23 ft 22 kts 240°
2026-04-10 18:21 40.62926 -73.76947 23 ft 18 kts 273°
2026-04-10 18:21 40.63011 -73.77023 24 ft 16 kts 14°
2026-04-10 18:22 40.63126 -73.76958 21 ft 20 kts 18°
2026-04-10 18:22 40.63273 -73.76944 22 ft 22 kts
2026-04-10 18:22 40.63425 -73.76936 21 ft 17 kts
2026-04-10 18:22 40.63551 -73.76914 22 ft 19 kts
2026-04-10 18:23 40.63684 -73.76914 22 ft 20 kts
2026-04-10 18:23 40.63829 -73.76909 24 ft 22 kts 359°
2026-04-10 18:23 40.63968 -73.76843 23 ft 22 kts 31°
2026-04-10 18:23 40.64103 -73.76737 21 ft 23 kts 30°
2026-04-10 18:24 40.64229 -73.76641 22 ft 12 kts 22°
2026-04-10 18:24 40.64258 -73.76648 21 ft 4 kts 327°
2026-04-10 18:24 40.64295 -73.76696 21 ft 11 kts 304°
2026-04-10 18:24 40.64341 -73.76808 21 ft 16 kts 298°
2026-04-10 18:25 40.64400 -73.76938 21 ft 17 kts 306°
2026-04-10 18:25 40.64507 -73.76988 22 ft 18 kts 359°
2026-04-10 18:25 40.64637 -73.76990 27 ft 19 kts 358°
2026-04-10 18:25 40.64758 -73.77066 22 ft 20 kts 315°
2026-04-10 18:26 40.64834 -73.77229 24 ft 22 kts 300°
2026-04-10 18:26 40.64912 -73.77403 24 ft 23 kts 301°
2026-04-10 18:26 40.64997 -73.77591 26 ft 24 kts 301°
2026-04-10 18:26 40.65081 -73.77774 24 ft 21 kts 301°
2026-04-10 18:27 40.65155 -73.77937 25 ft 21 kts 301°
2026-04-10 18:27 40.65220 -73.78076 24 ft 9 kts 301°
2026-04-10 18:27 40.65224 -73.78097 23 ft 1 kts 271°
2026-04-10 18:27 40.65220 -73.78116 24 ft 4 kts 245°
2026-04-10 18:28 40.65195 -73.78141 22 ft 5 kts 214°
2026-04-10 18:28 40.65183 -73.78174 25 ft 4 kts 263°
2026-04-10 18:28 40.65197 -73.78228 25 ft 9 kts 301°
2026-04-10 18:28 40.65240 -73.78321 23 ft 13 kts 301°
2026-04-10 18:29 40.65240 -73.78385 22 ft 3 kts 224°
2026-04-10 18:29 40.65216 -73.78403 21 ft 5 kts 198°
2026-04-10 18:29 40.65185 -73.78401 23 ft 4 kts 159°
2026-04-10 18:29 40.65152 -73.78382 23 ft 6 kts 156°
2026-04-10 18:30 40.65120 -73.78363 25 ft 4 kts 155°
2026-04-10 18:30 40.65117 -73.78361 24 ft 0 kts 155°